sensor_id;sensor_type;location;lat;lon;timestamp;P1;durP1;ratioP1;P2;durP2;ratioP2
21517;SDS011;61765;45.794;24.150;2023-02-28T00:05:45;9.88;;;6.90;;
21517;SDS011;61765;45.794;24.150;2023-02-28T00:13:50;10.65;;;6.20;;
21517;SDS011;61765;45.794;24.150;2023-02-28T00:21:58;10.88;;;6.72;;
21517;SDS011;61765;45.794;24.150;2023-02-28T00:30:05;15.73;;;9.55;;
21517;SDS011;61765;45.794;24.150;2023-02-28T00:38:14;12.55;;;8.23;;
21517;SDS011;61765;45.794;24.150;2023-02-28T00:46:20;11.90;;;7.43;;
21517;SDS011;61765;45.794;24.150;2023-02-28T00:54:28;14.55;;;8.57;;
21517;SDS011;61765;45.794;24.150;2023-02-28T01:02:33;12.65;;;7.85;;
21517;SDS011;61765;45.794;24.150;2023-02-28T01:10:42;11.52;;;7.05;;
21517;SDS011;61765;45.794;24.150;2023-02-28T01:18:47;12.18;;;7.32;;
21517;SDS011;61765;45.794;24.150;2023-02-28T01:26:55;10.27;;;7.20;;
21517;SDS011;61765;45.794;24.150;2023-02-28T01:35:01;13.05;;;8.80;;
21517;SDS011;61765;45.794;24.150;2023-02-28T01:51:22;22.55;;;12.23;;
21517;SDS011;61765;45.794;24.150;2023-02-28T01:59:33;22.90;;;13.15;;
21517;SDS011;61765;45.794;24.150;2023-02-28T02:07:47;21.48;;;12.55;;
21517;SDS011;61765;45.794;24.150;2023-02-28T02:15:57;18.23;;;11.90;;
21517;SDS011;61765;45.794;24.150;2023-02-28T02:33:03;24.05;;;12.93;;
21517;SDS011;61765;45.794;24.150;2023-02-28T02:41:26;28.05;;;15.50;;
21517;SDS011;61765;45.794;24.150;2023-02-28T02:49:39;32.92;;;17.90;;
21517;SDS011;61765;45.794;24.150;2023-02-28T02:57:54;25.15;;;14.95;;
21517;SDS011;61765;45.794;24.150;2023-02-28T03:06:04;24.98;;;13.80;;
21517;SDS011;61765;45.794;24.150;2023-02-28T03:14:15;27.98;;;15.55;;
21517;SDS011;61765;45.794;24.150;2023-02-28T03:31:06;30.85;;;17.23;;
21517;SDS011;61765;45.794;24.150;2023-02-28T03:39:18;35.30;;;17.60;;
21517;SDS011;61765;45.794;24.150;2023-02-28T03:47:31;37.88;;;18.67;;
21517;SDS011;61765;45.794;24.150;2023-02-28T03:55:41;37.25;;;18.92;;
21517;SDS011;61765;45.794;24.150;2023-02-28T04:03:52;41.35;;;20.02;;
21517;SDS011;61765;45.794;24.150;2023-02-28T04:11:58;38.88;;;18.85;;
21517;SDS011;61765;45.794;24.150;2023-02-28T04:20:06;41.58;;;19.88;;
21517;SDS011;61765;45.794;24.150;2023-02-28T04:28:14;40.17;;;19.35;;
21517;SDS011;61765;45.794;24.150;2023-02-28T04:36:22;35.60;;;18.30;;
21517;SDS011;61765;45.794;24.150;2023-02-28T04:44:27;37.38;;;19.67;;
21517;SDS011;61765;45.794;24.150;2023-02-28T04:52:35;47.38;;;20.92;;
21517;SDS011;61765;45.794;24.150;2023-02-28T05:00:41;42.10;;;20.13;;
21517;SDS011;61765;45.794;24.150;2023-02-28T05:08:49;44.30;;;21.80;;
21517;SDS011;61765;45.794;24.150;2023-02-28T05:16:55;44.95;;;21.20;;
21517;SDS011;61765;45.794;24.150;2023-02-28T05:25:03;45.58;;;22.00;;
21517;SDS011;61765;45.794;24.150;2023-02-28T05:33:09;45.20;;;22.33;;
21517;SDS011;61765;45.794;24.150;2023-02-28T05:41:19;46.25;;;22.08;;
21517;SDS011;61765;45.794;24.150;2023-02-28T05:49:25;44.45;;;21.90;;
21517;SDS011;61765;45.794;24.150;2023-02-28T05:57:33;41.65;;;21.42;;
21517;SDS011;61765;45.794;24.150;2023-02-28T06:05:39;46.40;;;21.75;;
21517;SDS011;61765;45.794;24.150;2023-02-28T06:13:47;43.15;;;21.13;;
21517;SDS011;61765;45.794;24.150;2023-02-28T06:21:52;45.08;;;22.75;;
21517;SDS011;61765;45.794;24.150;2023-02-28T06:30:01;40.80;;;19.88;;
21517;SDS011;61765;45.794;24.150;2023-02-28T06:38:07;45.03;;;22.73;;
21517;SDS011;61765;45.794;24.150;2023-02-28T06:46:15;51.97;;;25.95;;
21517;SDS011;61765;45.794;24.150;2023-02-28T06:54:21;45.70;;;23.73;;
21517;SDS011;61765;45.794;24.150;2023-02-28T07:02:29;44.85;;;23.10;;
21517;SDS011;61765;45.794;24.150;2023-02-28T07:10:36;47.25;;;23.35;;
21517;SDS011;61765;45.794;24.150;2023-02-28T07:18:45;51.30;;;24.17;;
21517;SDS011;61765;45.794;24.150;2023-02-28T07:26:50;39.88;;;20.15;;
21517;SDS011;61765;45.794;24.150;2023-02-28T07:34:58;35.20;;;19.13;;
21517;SDS011;61765;45.794;24.150;2023-02-28T07:43:04;41.30;;;21.02;;
21517;SDS011;61765;45.794;24.150;2023-02-28T07:51:12;43.80;;;21.25;;
21517;SDS011;61765;45.794;24.150;2023-02-28T07:59:19;40.10;;;20.95;;
21517;SDS011;61765;45.794;24.150;2023-02-28T08:07:28;40.08;;;21.33;;
21517;SDS011;61765;45.794;24.150;2023-02-28T08:15:35;39.28;;;19.38;;
21517;SDS011;61765;45.794;24.150;2023-02-28T08:23:43;38.42;;;20.45;;
21517;SDS011;61765;45.794;24.150;2023-02-28T08:31:51;40.15;;;21.77;;
21517;SDS011;61765;45.794;24.150;2023-02-28T08:39:59;37.85;;;20.65;;
21517;SDS011;61765;45.794;24.150;2023-02-28T08:48:05;47.10;;;22.85;;
21517;SDS011;61765;45.794;24.150;2023-02-28T08:56:15;39.85;;;20.77;;
21517;SDS011;61765;45.794;24.150;2023-02-28T09:04:22;41.58;;;20.73;;
21517;SDS011;61765;45.794;24.150;2023-02-28T09:12:32;37.42;;;20.73;;
21517;SDS011;61765;45.794;24.150;2023-02-28T09:20:39;38.28;;;20.45;;
21517;SDS011;61765;45.794;24.150;2023-02-28T09:28:48;42.58;;;22.00;;
21517;SDS011;61765;45.794;24.150;2023-02-28T09:36:55;49.08;;;24.02;;
21517;SDS011;61765;45.794;24.150;2023-02-28T09:45:05;38.08;;;20.60;;
21517;SDS011;61765;45.794;24.150;2023-02-28T09:53:23;35.72;;;19.67;;
21517;SDS011;61765;45.794;24.150;2023-02-28T10:01:39;41.25;;;22.48;;
21517;SDS011;61765;45.794;24.150;2023-02-28T10:09:51;37.83;;;20.52;;
21517;SDS011;61765;45.794;24.150;2023-02-28T10:18:03;40.45;;;20.60;;
21517;SDS011;61765;45.794;24.150;2023-02-28T10:26:13;38.67;;;20.53;;
21517;SDS011;61765;45.794;24.150;2023-02-28T10:34:24;35.50;;;20.42;;
21517;SDS011;61765;45.794;24.150;2023-02-28T10:42:30;36.22;;;20.10;;
21517;SDS011;61765;45.794;24.150;2023-02-28T10:50:45;31.20;;;17.80;;
21517;SDS011;61765;45.794;24.150;2023-02-28T10:59:00;35.72;;;20.25;;
21517;SDS011;61765;45.794;24.150;2023-02-28T11:07:18;32.75;;;19.70;;
21517;SDS011;61765;45.794;24.150;2023-02-28T11:15:28;37.47;;;20.23;;
21517;SDS011;61765;45.794;24.150;2023-02-28T11:23:40;35.55;;;20.33;;
21517;SDS011;61765;45.794;24.150;2023-02-28T11:32:00;31.67;;;18.52;;
21517;SDS011;61765;45.794;24.150;2023-02-28T11:40:16;30.13;;;18.48;;
21517;SDS011;61765;45.794;24.150;2023-02-28T11:48:25;30.30;;;18.33;;
21517;SDS011;61765;45.794;24.150;2023-02-28T11:56:41;33.15;;;18.80;;
21517;SDS011;61765;45.794;24.150;2023-02-28T12:04:59;30.75;;;18.70;;
21517;SDS011;61765;45.794;24.150;2023-02-28T12:13:21;31.33;;;19.27;;
21517;SDS011;61765;45.794;24.150;2023-02-28T12:21:34;30.17;;;17.60;;
21517;SDS011;61765;45.794;24.150;2023-02-28T12:29:53;35.58;;;18.98;;
21517;SDS011;61765;45.794;24.150;2023-02-28T12:38:04;30.43;;;17.57;;
21517;SDS011;61765;45.794;24.150;2023-02-28T12:46:17;31.02;;;17.88;;
21517;SDS011;61765;45.794;24.150;2023-02-28T12:54:29;35.47;;;20.25;;
21517;SDS011;61765;45.794;24.150;2023-02-28T13:02:57;37.60;;;20.45;;
21517;SDS011;61765;45.794;24.150;2023-02-28T13:11:27;35.22;;;20.23;;
21517;SDS011;61765;45.794;24.150;2023-02-28T13:19:40;33.13;;;19.25;;
21517;SDS011;61765;45.794;24.150;2023-02-28T13:27:49;36.67;;;21.43;;
21517;SDS011;61765;45.794;24.150;2023-02-28T13:36:10;39.58;;;21.48;;
21517;SDS011;61765;45.794;24.150;2023-02-28T13:44:27;34.40;;;19.95;;
21517;SDS011;61765;45.794;24.150;2023-02-28T13:52:36;35.88;;;21.00;;
21517;SDS011;61765;45.794;24.150;2023-02-28T14:01:03;36.20;;;20.58;;
21517;SDS011;61765;45.794;24.150;2023-02-28T14:09:23;37.95;;;20.95;;
21517;SDS011;61765;45.794;24.150;2023-02-28T14:17:33;36.10;;;20.77;;
21517;SDS011;61765;45.794;24.150;2023-02-28T14:25:45;36.67;;;20.63;;
21517;SDS011;61765;45.794;24.150;2023-02-28T14:34:10;33.25;;;19.85;;
21517;SDS011;61765;45.794;24.150;2023-02-28T14:42:33;34.38;;;19.33;;
21517;SDS011;61765;45.794;24.150;2023-02-28T14:50:48;35.95;;;20.02;;
21517;SDS011;61765;45.794;24.150;2023-02-28T14:58:58;36.13;;;20.73;;
21517;SDS011;61765;45.794;24.150;2023-02-28T15:07:07;36.13;;;20.35;;
21517;SDS011;61765;45.794;24.150;2023-02-28T15:15:17;37.15;;;20.90;;
21517;SDS011;61765;45.794;24.150;2023-02-28T15:23:41;36.65;;;20.83;;
21517;SDS011;61765;45.794;24.150;2023-02-28T15:31:55;38.08;;;21.30;;
21517;SDS011;61765;45.794;24.150;2023-02-28T15:40:10;39.40;;;23.30;;
21517;SDS011;61765;45.794;24.150;2023-02-28T15:48:21;34.17;;;20.73;;
21517;SDS011;61765;45.794;24.150;2023-02-28T15:56:31;39.03;;;20.60;;
21517;SDS011;61765;45.794;24.150;2023-02-28T16:04:54;34.67;;;20.27;;
21517;SDS011;61765;45.794;24.150;2023-02-28T16:13:03;37.13;;;20.52;;
21517;SDS011;61765;45.794;24.150;2023-02-28T16:21:12;37.13;;;21.02;;
21517;SDS011;61765;45.794;24.150;2023-02-28T16:29:19;39.35;;;21.33;;
21517;SDS011;61765;45.794;24.150;2023-02-28T16:37:32;38.75;;;21.25;;
21517;SDS011;61765;45.794;24.150;2023-02-28T16:45:46;37.88;;;20.77;;
21517;SDS011;61765;45.794;24.150;2023-02-28T16:53:58;34.63;;;20.92;;
21517;SDS011;61765;45.794;24.150;2023-02-28T17:02:08;40.70;;;23.15;;
21517;SDS011;61765;45.794;24.150;2023-02-28T17:10:19;42.55;;;24.73;;
21517;SDS011;61765;45.794;24.150;2023-02-28T17:18:29;43.20;;;25.20;;
21517;SDS011;61765;45.794;24.150;2023-02-28T17:26:38;49.03;;;26.73;;
21517;SDS011;61765;45.794;24.150;2023-02-28T17:34:44;43.30;;;24.80;;
21517;SDS011;61765;45.794;24.150;2023-02-28T17:42:52;42.08;;;24.48;;
21517;SDS011;61765;45.794;24.150;2023-02-28T17:50:58;46.58;;;26.48;;
21517;SDS011;61765;45.794;24.150;2023-02-28T17:59:08;52.47;;;28.67;;
21517;SDS011;61765;45.794;24.150;2023-02-28T18:07:14;48.75;;;26.67;;
21517;SDS011;61765;45.794;24.150;2023-02-28T18:15:22;57.17;;;30.83;;
21517;SDS011;61765;45.794;24.150;2023-02-28T18:23:28;51.10;;;30.08;;
21517;SDS011;61765;45.794;24.150;2023-02-28T18:31:36;49.85;;;27.17;;
21517;SDS011;61765;45.794;24.150;2023-02-28T18:39:42;48.33;;;28.92;;
21517;SDS011;61765;45.794;24.150;2023-02-28T18:47:50;54.03;;;28.50;;
21517;SDS011;61765;45.794;24.150;2023-02-28T18:55:59;57.72;;;33.80;;
21517;SDS011;61765;45.794;24.150;2023-02-28T19:04:09;62.80;;;34.88;;
21517;SDS011;61765;45.794;24.150;2023-02-28T19:12:27;65.25;;;37.05;;
21517;SDS011;61765;45.794;24.150;2023-02-28T19:20:39;62.08;;;34.65;;
21517;SDS011;61765;45.794;24.150;2023-02-28T19:28:47;69.60;;;35.55;;
21517;SDS011;61765;45.794;24.150;2023-02-28T19:36:56;57.67;;;32.88;;
21517;SDS011;61765;45.794;24.150;2023-02-28T19:45:02;54.97;;;32.08;;
21517;SDS011;61765;45.794;24.150;2023-02-28T19:53:13;58.88;;;31.35;;
21517;SDS011;61765;45.794;24.150;2023-02-28T20:01:18;66.40;;;32.13;;
21517;SDS011;61765;45.794;24.150;2023-02-28T20:09:31;62.95;;;35.83;;
21517;SDS011;61765;45.794;24.150;2023-02-28T20:17:37;66.55;;;36.70;;
21517;SDS011;61765;45.794;24.150;2023-02-28T20:25:48;63.63;;;33.80;;
21517;SDS011;61765;45.794;24.150;2023-02-28T20:33:54;64.32;;;35.15;;
21517;SDS011;61765;45.794;24.150;2023-02-28T20:42:03;85.63;;;45.90;;
21517;SDS011;61765;45.794;24.150;2023-02-28T20:50:09;86.25;;;47.45;;
21517;SDS011;61765;45.794;24.150;2023-02-28T20:58:20;100.38;;;53.35;;
21517;SDS011;61765;45.794;24.150;2023-02-28T21:06:28;84.88;;;46.83;;
21517;SDS011;61765;45.794;24.150;2023-02-28T21:14:38;73.15;;;40.70;;
21517;SDS011;61765;45.794;24.150;2023-02-28T21:22:44;67.63;;;36.42;;
21517;SDS011;61765;45.794;24.150;2023-02-28T21:30:53;55.53;;;31.85;;
21517;SDS011;61765;45.794;24.150;2023-02-28T21:39:04;60.47;;;35.47;;
21517;SDS011;61765;45.794;24.150;2023-02-28T21:47:14;68.32;;;36.75;;
21517;SDS011;61765;45.794;24.150;2023-02-28T21:55:21;80.38;;;42.13;;
21517;SDS011;61765;45.794;24.150;2023-02-28T22:03:29;77.10;;;42.35;;
21517;SDS011;61765;45.794;24.150;2023-02-28T22:11:36;95.00;;;48.00;;
21517;SDS011;61765;45.794;24.150;2023-02-28T22:19:45;104.43;;;49.05;;
21517;SDS011;61765;45.794;24.150;2023-02-28T22:27:51;108.32;;;50.47;;
21517;SDS011;61765;45.794;24.150;2023-02-28T22:35:59;92.97;;;49.45;;
21517;SDS011;61765;45.794;24.150;2023-02-28T22:44:09;134.10;;;62.93;;
21517;SDS011;61765;45.794;24.150;2023-02-28T22:52:17;108.57;;;50.03;;
21517;SDS011;61765;45.794;24.150;2023-02-28T23:00:23;104.32;;;50.47;;
21517;SDS011;61765;45.794;24.150;2023-02-28T23:08:31;91.45;;;44.55;;
21517;SDS011;61765;45.794;24.150;2023-02-28T23:16:38;58.28;;;31.95;;
21517;SDS011;61765;45.794;24.150;2023-02-28T23:24:48;73.57;;;39.35;;
21517;SDS011;61765;45.794;24.150;2023-02-28T23:32:55;77.22;;;41.15;;
21517;SDS011;61765;45.794;24.150;2023-02-28T23:41:04;71.10;;;38.15;;
21517;SDS011;61765;45.794;24.150;2023-02-28T23:49:10;58.88;;;32.40;;
21517;SDS011;61765;45.794;24.150;2023-02-28T23:57:18;60.60;;;33.90;;
